createdAt,value
2018-02-09T00:00:01.700Z,47.15
2018-02-09T00:01:04.189Z,47.06
2018-02-09T00:02:06.672Z,47.32
2018-02-09T00:03:09.172Z,47.38
2018-02-09T00:04:11.660Z,47.44
2018-02-09T00:05:14.138Z,47.38
2018-02-09T00:06:16.615Z,47.56
2018-02-09T00:07:19.104Z,47.53
2018-02-09T00:08:21.615Z,47.67
2018-02-09T00:09:24.118Z,47.67
2018-02-09T00:10:26.627Z,47.66
2018-02-09T00:11:29.159Z,47.62
2018-02-09T00:12:31.645Z,47.87
2018-02-09T00:13:34.156Z,47.97
2018-02-09T00:14:36.624Z,47.99
2018-02-09T00:15:39.116Z,48.02
2018-02-09T00:16:41.612Z,48.21
2018-02-09T00:17:44.094Z,48.06
2018-02-09T00:18:46.594Z,48.17
2018-02-09T00:19:49.070Z,48.09
2018-02-09T00:20:51.573Z,48.32
2018-02-09T00:21:54.050Z,48.36
2018-02-09T00:22:56.543Z,48.42
2018-02-09T00:23:59.123Z,48.50
2018-02-09T00:25:01.602Z,48.67
2018-02-09T00:26:04.097Z,48.61
2018-02-09T00:27:06.623Z,48.62
2018-02-09T00:28:09.116Z,48.72
2018-02-09T00:29:11.590Z,48.85
2018-02-09T00:30:14.088Z,48.89
2018-02-09T00:31:16.593Z,48.66
2018-02-09T00:32:19.104Z,48.59
2018-02-09T00:33:21.582Z,48.67
2018-02-09T00:34:24.052Z,48.75
2018-02-09T00:35:26.552Z,48.73
2018-02-09T00:36:29.049Z,48.83
2018-02-09T00:37:31.529Z,48.78
2018-02-09T00:38:34.030Z,48.72
2018-02-09T00:39:36.520Z,48.74
2018-02-09T00:40:38.999Z,48.80
2018-02-09T00:41:41.493Z,48.85
2018-02-09T00:42:43.985Z,48.70
2018-02-09T00:43:46.463Z,48.66
2018-02-09T00:44:48.956Z,48.50
2018-02-09T00:45:51.438Z,48.54
2018-02-09T00:46:53.929Z,48.62
2018-02-09T00:47:56.407Z,48.55
2018-02-09T00:48:58.905Z,48.40
2018-02-09T00:50:01.396Z,48.33
2018-02-09T00:51:03.872Z,48.18
2018-02-09T00:52:06.351Z,48.09
2018-02-09T00:53:08.848Z,47.99
2018-02-09T00:54:11.340Z,47.97
2018-02-09T00:55:13.826Z,47.82
2018-02-09T00:56:16.325Z,47.84
2018-02-09T00:57:18.847Z,47.84
2018-02-09T00:58:21.327Z,47.79
2018-02-09T00:59:23.829Z,48.03
2018-02-09T01:00:26.321Z,48.33
2018-02-09T01:01:28.803Z,48.20
2018-02-09T01:02:31.298Z,48.24
2018-02-09T01:03:33.778Z,48.29
2018-02-09T01:04:36.277Z,48.34
2018-02-09T01:05:38.777Z,48.21
2018-02-09T01:06:41.263Z,48.17
2018-02-09T01:07:43.751Z,48.33
2018-02-09T01:08:46.243Z,48.44
2018-02-09T01:09:48.737Z,48.62
2018-02-09T01:10:51.232Z,48.74
2018-02-09T01:11:53.715Z,48.56
2018-02-09T01:12:56.194Z,48.59
2018-02-09T01:13:58.699Z,48.58
2018-02-09T01:15:01.171Z,48.63
2018-02-09T01:16:03.652Z,48.89
2018-02-09T01:17:06.144Z,48.92
2018-02-09T01:18:08.624Z,48.53
2018-02-09T01:19:11.101Z,48.66
2018-02-09T01:20:13.583Z,48.91
2018-02-09T01:21:16.062Z,49.03
2018-02-09T01:22:18.543Z,49.03
2018-02-09T01:23:21.019Z,49.08
2018-02-09T01:24:23.502Z,49.07
2018-02-09T01:25:25.984Z,48.95
2018-02-09T01:26:28.480Z,48.99
2018-02-09T01:27:30.977Z,49.01
2018-02-09T01:28:33.465Z,49.41
2018-02-09T01:29:35.957Z,49.44
2018-02-09T01:30:38.448Z,49.43
2018-02-09T01:31:40.940Z,49.51
2018-02-09T01:32:43.441Z,49.47
2018-02-09T01:33:45.915Z,49.22
2018-02-09T01:34:48.439Z,49.12
2018-02-09T01:35:50.965Z,49.06
2018-02-09T01:36:53.451Z,48.91
2018-02-09T01:37:55.940Z,48.77
2018-02-09T01:38:58.415Z,48.74
2018-02-09T01:40:00.894Z,48.75
2018-02-09T01:41:03.383Z,48.76
2018-02-09T01:42:05.858Z,48.62
2018-02-09T01:43:08.347Z,48.68
2018-02-09T01:44:10.841Z,48.73
2018-02-09T01:45:13.332Z,48.69
2018-02-09T01:46:15.820Z,48.65
2018-02-09T01:47:18.294Z,48.66
2018-02-09T01:48:20.780Z,48.74
2018-02-09T01:49:23.257Z,48.69
2018-02-09T01:50:25.738Z,48.83
2018-02-09T01:51:28.215Z,48.85
2018-02-09T01:52:30.700Z,48.92
2018-02-09T01:53:33.178Z,49.06
2018-02-09T01:54:35.667Z,48.94
2018-02-09T01:55:38.142Z,49.04
2018-02-09T01:56:40.623Z,48.92
2018-02-09T01:57:43.104Z,49.10
2018-02-09T01:58:45.570Z,49.09
2018-02-09T01:59:48.057Z,49.25
2018-02-09T02:00:50.534Z,49.16
2018-02-09T02:01:53.024Z,49.47
2018-02-09T02:02:55.544Z,49.90
2018-02-09T02:03:58.010Z,49.73
2018-02-09T02:05:00.497Z,49.88
2018-02-09T02:06:02.975Z,49.51
2018-02-09T02:07:05.464Z,49.80
2018-02-09T02:08:07.945Z,49.80
2018-02-09T02:09:10.436Z,50.17
2018-02-09T02:10:12.921Z,50.04
2018-02-09T02:11:15.399Z,50.10
2018-02-09T02:12:17.888Z,50.37
2018-02-09T02:13:20.363Z,50.24
2018-02-09T02:14:22.853Z,50.08
2018-02-09T02:15:25.345Z,49.95
2018-02-09T02:16:27.819Z,49.91
2018-02-09T02:17:30.342Z,49.79
2018-02-09T02:18:32.823Z,49.71
2018-02-09T02:19:35.308Z,49.62
2018-02-09T02:20:37.801Z,49.56
2018-02-09T02:21:40.274Z,49.41
2018-02-09T02:22:42.754Z,49.35
2018-02-09T02:23:45.241Z,49.31
2018-02-09T02:24:47.721Z,49.39
2018-02-09T02:25:50.217Z,49.21
2018-02-09T02:26:52.689Z,49.29
2018-02-09T02:27:55.166Z,49.39
2018-02-09T02:28:57.643Z,49.32
2018-02-09T02:30:00.123Z,49.34
2018-02-09T02:31:02.591Z,49.34
2018-02-09T02:32:05.081Z,49.31
2018-02-09T02:33:07.569Z,49.41
2018-02-09T02:34:10.054Z,49.41
2018-02-09T02:35:12.536Z,49.52
2018-02-09T02:36:15.014Z,49.71
2018-02-09T02:37:17.506Z,49.59
2018-02-09T02:38:19.998Z,49.78
2018-02-09T02:39:22.502Z,49.75
2018-02-09T02:40:25.016Z,49.84
2018-02-09T02:41:27.483Z,49.96
2018-02-09T02:42:29.968Z,49.95
2018-02-09T02:43:32.456Z,49.96
2018-02-09T02:44:34.953Z,50.03
2018-02-09T02:45:37.444Z,50.06
2018-02-09T02:46:39.937Z,50.20
2018-02-09T02:47:42.407Z,50.14
2018-02-09T02:48:44.887Z,50.24
2018-02-09T02:49:47.402Z,50.12
2018-02-09T02:50:49.892Z,50.38
2018-02-09T02:51:52.387Z,50.15
2018-02-09T02:52:54.858Z,50.37
2018-02-09T02:53:57.346Z,50.54
2018-02-09T02:54:59.811Z,50.36
2018-02-09T02:56:02.296Z,50.38
2018-02-09T02:57:04.785Z,50.37
2018-02-09T02:58:07.260Z,50.42
2018-02-09T02:59:09.757Z,50.49
2018-02-09T03:00:12.241Z,50.50
2018-02-09T03:01:14.729Z,50.58
2018-02-09T03:02:17.216Z,50.56
2018-02-09T03:03:19.709Z,50.50
2018-02-09T03:04:22.192Z,50.46
2018-02-09T03:05:24.689Z,50.42
2018-02-09T03:06:27.159Z,50.38
2018-02-09T03:07:29.626Z,50.36
2018-02-09T03:08:32.094Z,50.41
2018-02-09T03:09:34.575Z,50.36
2018-02-09T03:10:37.066Z,50.35
2018-02-09T03:11:39.552Z,50.33
2018-02-09T03:12:42.027Z,50.33
2018-02-09T03:13:44.529Z,50.47
2018-02-09T03:14:47.018Z,50.42
2018-02-09T03:15:49.511Z,50.41
2018-02-09T03:16:51.990Z,50.76
2018-02-09T03:17:54.462Z,50.46
2018-02-09T03:18:56.961Z,50.05
2018-02-09T03:19:59.448Z,48.59
2018-02-09T03:21:01.938Z,48.55
2018-02-09T03:22:04.406Z,47.42
2018-02-09T03:23:06.878Z,47.42
2018-02-09T03:24:09.358Z,48.99
2018-02-09T03:25:11.846Z,45.90
2018-02-09T03:26:14.325Z,46.04
2018-02-09T03:27:16.819Z,47.25
2018-02-09T03:28:19.307Z,47.01
2018-02-09T03:29:21.802Z,46.48
2018-02-09T03:30:24.314Z,46.79
2018-02-09T03:31:26.813Z,46.58
2018-02-09T03:32:29.309Z,45.73
2018-02-09T03:33:31.792Z,45.69
2018-02-09T03:34:34.274Z,45.38
2018-02-09T03:35:36.777Z,45.11
2018-02-09T03:36:39.255Z,44.49
2018-02-09T03:37:41.746Z,45.34
2018-02-09T03:38:44.222Z,45.82
2018-02-09T03:39:46.709Z,46.19
2018-02-09T03:40:49.190Z,46.40
2018-02-09T03:41:51.671Z,46.63
2018-02-09T03:42:54.162Z,46.72
2018-02-09T03:43:56.661Z,46.87
2018-02-09T03:44:59.156Z,47.06
2018-02-09T03:46:01.645Z,47.21
2018-02-09T03:47:04.140Z,47.30
2018-02-09T03:48:06.624Z,47.48
2018-02-09T03:49:09.116Z,47.46
2018-02-09T03:50:11.617Z,47.71
2018-02-09T03:51:14.294Z,47.82
2018-02-09T03:52:16.975Z,47.94
2018-02-09T03:53:19.469Z,48.04
2018-02-09T03:54:21.962Z,48.29
2018-02-09T03:55:24.448Z,48.35
2018-02-09T03:56:26.933Z,48.44
2018-02-09T03:57:29.415Z,48.50
2018-02-09T03:58:31.900Z,48.52
2018-02-09T03:59:34.397Z,48.40
2018-02-09T04:00:36.896Z,48.36
2018-02-09T04:01:39.388Z,48.32
2018-02-09T04:02:41.879Z,48.31
2018-02-09T04:03:44.365Z,48.27
2018-02-09T04:04:46.852Z,48.22
2018-02-09T04:05:49.366Z,48.09
2018-02-09T04:06:51.845Z,48.19
2018-02-09T04:07:54.322Z,48.12
2018-02-09T04:08:56.795Z,48.11
2018-02-09T04:09:59.283Z,48.14
2018-02-09T04:11:01.759Z,48.20
2018-02-09T04:12:04.277Z,48.22
2018-02-09T04:13:06.759Z,48.28
2018-02-09T04:14:09.223Z,48.32
2018-02-09T04:15:11.717Z,48.43
2018-02-09T04:16:14.195Z,48.50
2018-02-09T04:17:16.688Z,48.49
2018-02-09T04:18:19.173Z,48.67
2018-02-09T04:19:21.669Z,48.70
2018-02-09T04:20:24.134Z,48.87
2018-02-09T04:21:26.624Z,48.83
2018-02-09T04:22:29.098Z,49.04
2018-02-09T04:23:31.593Z,49.25
2018-02-09T04:24:34.085Z,49.42
2018-02-09T04:25:36.577Z,49.48
2018-02-09T04:26:39.071Z,49.54
2018-02-09T04:27:41.554Z,49.49
2018-02-09T04:28:44.045Z,49.45
2018-02-09T04:29:46.525Z,49.53
2018-02-09T04:30:49.003Z,49.37
2018-02-09T04:31:51.487Z,49.78
2018-02-09T04:32:53.977Z,50.16
2018-02-09T04:33:56.473Z,50.41
2018-02-09T04:34:58.939Z,50.32
2018-02-09T04:36:01.428Z,50.24
2018-02-09T04:37:03.988Z,50.23
2018-02-09T04:38:06.462Z,50.13
2018-02-09T04:39:08.939Z,50.02
2018-02-09T04:40:11.429Z,49.93
2018-02-09T04:41:13.912Z,49.84
2018-02-09T04:42:16.379Z,49.80
2018-02-09T04:43:18.865Z,49.75
2018-02-09T04:44:21.345Z,49.57
2018-02-09T04:45:23.814Z,49.46
2018-02-09T04:46:26.290Z,49.43
2018-02-09T04:47:28.766Z,49.49
2018-02-09T04:48:31.235Z,49.41
2018-02-09T04:49:33.720Z,49.48
2018-02-09T04:50:36.194Z,49.57
2018-02-09T04:51:38.678Z,49.54
2018-02-09T04:52:41.170Z,49.76
2018-02-09T04:53:43.668Z,49.69
2018-02-09T04:54:46.145Z,49.82
2018-02-09T04:55:48.628Z,49.86
2018-02-09T04:56:51.113Z,50.04
2018-02-09T04:57:53.579Z,50.08
2018-02-09T04:58:56.046Z,50.23
2018-02-09T04:59:58.531Z,50.30
2018-02-09T05:01:01.024Z,50.42
2018-02-09T05:02:03.502Z,50.64
2018-02-09T05:03:05.980Z,50.59
2018-02-09T05:04:08.485Z,50.73
2018-02-09T05:05:10.997Z,50.85
2018-02-09T05:06:13.467Z,50.67
2018-02-09T05:07:15.927Z,50.82
2018-02-09T05:08:18.417Z,51.03
2018-02-09T05:09:20.985Z,51.20
2018-02-09T05:10:23.450Z,51.24
2018-02-09T05:11:25.923Z,51.57
2018-02-09T05:12:28.394Z,51.39
2018-02-09T05:13:30.879Z,51.51
2018-02-09T05:14:33.346Z,51.49
2018-02-09T05:15:35.824Z,51.38
2018-02-09T05:16:38.296Z,51.30
2018-02-09T05:17:40.832Z,51.17
2018-02-09T05:18:43.323Z,51.13
2018-02-09T05:19:45.802Z,51.04
2018-02-09T05:20:48.293Z,51.02
2018-02-09T05:21:50.791Z,50.75
2018-02-09T05:22:53.271Z,50.80
2018-02-09T05:23:55.757Z,50.66
2018-02-09T05:24:58.218Z,50.84
2018-02-09T05:26:00.686Z,50.85
2018-02-09T05:27:03.165Z,50.79
2018-02-09T05:28:05.643Z,50.77
2018-02-09T05:29:08.136Z,50.78
2018-02-09T05:30:10.621Z,50.92
2018-02-09T05:31:13.102Z,50.87
2018-02-09T05:32:15.583Z,51.00
2018-02-09T05:33:18.050Z,51.16
2018-02-09T05:34:20.514Z,51.10
2018-02-09T05:35:23.001Z,51.21
2018-02-09T05:36:25.466Z,51.23
2018-02-09T05:37:27.934Z,51.31
2018-02-09T05:38:30.428Z,51.59
2018-02-09T05:39:32.894Z,51.57
2018-02-09T05:40:35.384Z,51.52
2018-02-09T05:41:37.846Z,51.81
2018-02-09T05:42:40.328Z,52.14
2018-02-09T05:43:42.800Z,52.08
2018-02-09T05:44:45.286Z,52.19
2018-02-09T05:45:47.758Z,52.17
2018-02-09T05:46:50.250Z,52.06
2018-02-09T05:47:52.723Z,51.92
2018-02-09T05:48:55.221Z,52.06
2018-02-09T05:49:57.704Z,52.20
2018-02-09T05:51:00.200Z,52.15
2018-02-09T05:52:02.686Z,52.29
2018-02-09T05:53:05.159Z,52.18
2018-02-09T05:54:07.632Z,52.26
2018-02-09T05:55:10.134Z,52.32
2018-02-09T05:56:12.604Z,52.41
2018-02-09T05:57:15.073Z,52.27
2018-02-09T05:58:17.565Z,52.33
2018-02-09T05:59:20.043Z,52.31
2018-02-09T06:00:22.545Z,52.21
2018-02-09T06:01:25.034Z,52.22
2018-02-09T06:02:27.514Z,52.42
2018-02-09T06:03:30.009Z,52.54
2018-02-09T06:04:32.495Z,53.20
2018-02-09T06:05:34.969Z,52.46
2018-02-09T06:06:37.452Z,52.51
2018-02-09T06:07:39.930Z,52.51
2018-02-09T06:08:42.417Z,52.82
2018-02-09T06:09:44.908Z,49.92
2018-02-09T06:10:47.386Z,50.07
2018-02-09T06:11:49.865Z,49.68
2018-02-09T06:12:52.343Z,49.99
2018-02-09T06:13:54.818Z,49.03
2018-02-09T06:14:57.324Z,48.99
2018-02-09T06:15:59.798Z,48.36
2018-02-09T06:17:02.272Z,47.16
2018-02-09T06:18:04.746Z,47.19
2018-02-09T06:19:07.230Z,47.23
2018-02-09T06:20:09.715Z,47.21
2018-02-09T06:21:12.319Z,46.01
2018-02-09T06:22:14.808Z,45.37
2018-02-09T06:23:17.295Z,44.94
2018-02-09T06:24:19.810Z,44.40
2018-02-09T06:25:22.296Z,45.68
2018-02-09T06:26:24.775Z,46.32
2018-02-09T06:27:27.556Z,46.50
2018-02-09T06:28:30.042Z,46.60
2018-02-09T06:29:32.533Z,46.41
2018-02-09T06:30:35.024Z,46.94
2018-02-09T06:31:37.515Z,47.08
2018-02-09T06:32:40.046Z,47.18
2018-02-09T06:33:42.546Z,47.31
2018-02-09T06:34:45.040Z,47.42
2018-02-09T06:35:47.544Z,47.65
2018-02-09T06:36:50.038Z,47.79
2018-02-09T06:37:52.539Z,47.96
2018-02-09T06:38:55.023Z,48.13
2018-02-09T06:39:57.536Z,48.18
2018-02-09T06:41:00.038Z,48.27
2018-02-09T06:42:02.535Z,48.51
2018-02-09T06:43:05.046Z,48.47
2018-02-09T06:44:07.568Z,48.13
2018-02-09T06:45:10.072Z,47.97
2018-02-09T06:46:12.572Z,47.77
2018-02-09T06:47:15.050Z,47.89
2018-02-09T06:48:17.545Z,47.80
2018-02-09T06:49:20.026Z,47.79
2018-02-09T06:50:22.521Z,47.65
2018-02-09T06:51:25.003Z,47.40
2018-02-09T06:52:27.489Z,46.98
2018-02-09T06:53:29.993Z,46.52
2018-02-09T06:54:32.494Z,46.68
2018-02-09T06:55:35.060Z,46.56
2018-02-09T06:56:37.538Z,46.48
2018-02-09T06:57:45.626Z,46.04
2018-02-09T06:58:48.106Z,46.15
2018-02-09T06:59:50.615Z,45.85
2018-02-09T07:00:53.104Z,45.41
2018-02-09T07:01:55.607Z,45.05
2018-02-09T07:02:58.116Z,43.70
2018-02-09T07:04:00.631Z,41.66
2018-02-09T07:05:03.142Z,40.86
2018-02-09T07:06:05.651Z,40.63
2018-02-09T07:07:10.987Z,40.57
2018-02-09T07:08:13.505Z,41.15
2018-02-09T07:09:15.996Z,41.68
2018-02-09T07:10:18.506Z,40.45
2018-02-09T07:11:21.010Z,40.04
2018-02-09T07:12:23.544Z,40.29
2018-02-09T07:13:26.044Z,39.78
2018-02-09T07:14:28.535Z,39.85
2018-02-09T07:15:31.047Z,38.96
2018-02-09T07:16:33.521Z,38.76
2018-02-09T07:17:36.008Z,37.79
2018-02-09T07:18:38.554Z,37.35
2018-02-09T07:19:41.032Z,36.57
2018-02-09T07:20:43.524Z,36.43
2018-02-09T07:21:46.064Z,35.86
2018-02-09T07:22:48.659Z,35.69
2018-02-09T07:23:51.139Z,35.33
2018-02-09T07:24:53.643Z,35.89
2018-02-09T07:25:56.119Z,36.91
2018-02-09T07:26:58.608Z,37.66
2018-02-09T07:28:01.108Z,38.52
2018-02-09T07:29:03.596Z,39.11
2018-02-09T07:30:06.089Z,39.34
2018-02-09T07:31:08.578Z,39.42
2018-02-09T07:32:11.110Z,39.47
2018-02-09T07:33:13.720Z,39.43
2018-02-09T07:34:16.211Z,39.40
2018-02-09T07:35:18.692Z,39.39
2018-02-09T07:36:21.184Z,39.15
2018-02-09T07:37:23.663Z,39.12
2018-02-09T07:38:26.165Z,39.07
2018-02-09T07:39:28.643Z,38.98
2018-02-09T07:40:31.133Z,38.89
2018-02-09T07:41:33.803Z,38.84
2018-02-09T07:42:36.305Z,38.90
2018-02-09T07:43:38.778Z,38.89
2018-02-09T07:44:41.254Z,38.96
2018-02-09T07:45:44.068Z,39.08
2018-02-09T07:46:46.576Z,39.16
2018-02-09T07:47:49.054Z,39.40
2018-02-09T07:48:51.552Z,39.49
2018-02-09T07:49:54.119Z,39.55
2018-02-09T07:50:56.608Z,39.66
2018-02-09T07:51:59.105Z,39.93
2018-02-09T07:53:01.906Z,39.87
2018-02-09T07:54:04.421Z,39.84
2018-02-09T07:55:06.917Z,39.78
2018-02-09T07:56:09.409Z,39.82
2018-02-09T07:57:11.888Z,39.65
2018-02-09T07:58:14.381Z,39.76
2018-02-09T07:59:16.956Z,39.71
2018-02-09T08:00:19.435Z,39.73
2018-02-09T08:01:21.934Z,39.74
2018-02-09T08:02:24.430Z,39.86
2018-02-09T08:03:26.927Z,39.94
2018-02-09T08:04:29.423Z,40.09
2018-02-09T08:05:31.920Z,40.31
2018-02-09T08:06:34.398Z,40.54
2018-02-09T08:07:36.874Z,40.68
2018-02-09T08:08:39.377Z,40.81
2018-02-09T08:09:41.852Z,40.80
2018-02-09T08:10:44.344Z,40.89
2018-02-09T08:11:46.874Z,40.85
2018-02-09T08:12:49.392Z,40.77
2018-02-09T08:13:51.889Z,40.74
2018-02-09T08:14:54.366Z,40.71
2018-02-09T08:15:56.856Z,40.78
2018-02-09T08:16:59.346Z,40.82
2018-02-09T08:18:01.833Z,40.78
2018-02-09T08:19:04.316Z,40.78
2018-02-09T08:20:06.825Z,40.82
2018-02-09T08:21:09.302Z,41.04
2018-02-09T08:22:11.785Z,41.29
2018-02-09T08:23:14.291Z,41.39
2018-02-09T08:24:16.777Z,41.45
2018-02-09T08:25:19.251Z,41.50
2018-02-09T08:26:21.736Z,41.64
2018-02-09T08:27:24.207Z,41.48
2018-02-09T08:28:26.693Z,41.43
2018-02-09T08:29:29.177Z,41.31
2018-02-09T08:30:31.647Z,41.24
2018-02-09T08:31:34.149Z,41.16
2018-02-09T08:32:36.635Z,41.10
2018-02-09T08:33:39.119Z,41.10
2018-02-09T08:34:41.608Z,40.98
2018-02-09T08:35:44.094Z,41.12
2018-02-09T08:36:46.572Z,41.12
2018-02-09T08:37:49.064Z,41.27
2018-02-09T08:38:51.551Z,41.50
2018-02-09T08:39:54.022Z,41.62
2018-02-09T08:40:56.501Z,41.92
2018-02-09T08:41:58.966Z,41.84
2018-02-09T08:43:01.462Z,41.82
2018-02-09T08:44:03.957Z,41.83
2018-02-09T08:45:06.469Z,41.75
2018-02-09T08:46:08.988Z,41.66
2018-02-09T08:47:11.484Z,41.60
2018-02-09T08:48:14.001Z,41.52
2018-02-09T08:49:16.505Z,41.50
2018-02-09T08:50:18.970Z,41.46
2018-02-09T08:51:21.439Z,41.50
2018-02-09T08:52:23.937Z,41.57
2018-02-09T08:53:26.417Z,41.61
2018-02-09T08:54:28.883Z,41.69
2018-02-09T08:55:31.364Z,41.77
2018-02-09T08:56:33.835Z,42.00
2018-02-09T08:57:36.320Z,42.04
2018-02-09T08:58:38.810Z,42.26
2018-02-09T08:59:41.311Z,42.33
2018-02-09T09:00:43.782Z,42.26
2018-02-09T09:01:46.246Z,42.21
2018-02-09T09:02:48.738Z,42.26
2018-02-09T09:03:51.279Z,42.08
2018-02-09T09:04:53.761Z,42.28
2018-02-09T09:05:56.240Z,41.79
2018-02-09T09:06:58.756Z,41.78
2018-02-09T09:08:01.227Z,41.14
2018-02-09T09:09:03.705Z,40.34
2018-02-09T09:10:06.296Z,40.58
2018-02-09T09:11:08.772Z,40.14
2018-02-09T09:12:11.253Z,39.79
2018-02-09T09:13:13.741Z,39.71
2018-02-09T09:14:16.233Z,39.71
2018-02-09T09:15:18.725Z,39.54
2018-02-09T09:16:21.194Z,39.45
2018-02-09T09:17:23.662Z,39.33
2018-02-09T09:18:26.151Z,39.20
2018-02-09T09:19:28.633Z,39.08
2018-02-09T09:20:31.108Z,38.77
2018-02-09T09:21:33.578Z,38.84
2018-02-09T09:22:36.065Z,38.96
2018-02-09T09:23:38.541Z,38.77
2018-02-09T09:24:41.006Z,38.86
2018-02-09T09:25:43.479Z,38.73
2018-02-09T09:26:45.951Z,38.61
2018-02-09T09:27:48.419Z,38.89
2018-02-09T09:28:50.891Z,38.90
2018-02-09T09:29:53.371Z,39.24
2018-02-09T09:30:55.834Z,39.36
2018-02-09T09:31:58.308Z,39.94
2018-02-09T09:33:00.770Z,39.88
2018-02-09T09:34:03.253Z,39.88
2018-02-09T09:35:05.714Z,40.06
2018-02-09T09:36:08.196Z,40.06
2018-02-09T09:37:10.670Z,39.70
2018-02-09T09:38:13.144Z,39.81
2018-02-09T09:39:15.606Z,39.81
2018-02-09T09:40:18.081Z,39.46
2018-02-09T09:41:20.544Z,39.39
2018-02-09T09:42:23.006Z,39.66
2018-02-09T09:43:25.484Z,39.48
2018-02-09T09:44:27.960Z,39.66
2018-02-09T09:45:30.440Z,39.49
2018-02-09T09:46:32.921Z,39.47
2018-02-09T09:47:35.409Z,39.64
2018-02-09T09:48:37.940Z,40.00
2018-02-09T09:49:40.424Z,40.07
2018-02-09T09:50:42.901Z,40.37
2018-02-09T09:51:45.371Z,40.11
2018-02-09T09:52:47.843Z,39.18
2018-02-09T09:53:50.328Z,39.11
2018-02-09T09:54:52.802Z,39.17
2018-02-09T09:55:55.285Z,39.13
2018-02-09T09:56:57.769Z,38.99
2018-02-09T09:58:00.252Z,38.76
2018-02-09T09:59:02.741Z,37.78
2018-02-09T10:00:05.236Z,37.71
2018-02-09T10:01:13.277Z,37.56
2018-02-09T10:02:27.498Z,37.52
2018-02-09T10:03:29.980Z,37.53
2018-02-09T10:04:32.464Z,37.59
2018-02-09T10:05:34.949Z,37.61
2018-02-09T10:06:37.419Z,37.64
2018-02-09T10:07:39.939Z,37.60
2018-02-09T10:08:42.406Z,37.61
2018-02-09T10:09:44.933Z,37.69
2018-02-09T10:10:47.424Z,37.77
2018-02-09T10:11:49.890Z,37.76
2018-02-09T10:12:52.373Z,37.74
2018-02-09T10:13:54.852Z,37.77
2018-02-09T10:14:57.315Z,37.85
2018-02-09T10:15:59.798Z,37.92
2018-02-09T10:17:02.267Z,37.88
2018-02-09T10:18:04.739Z,37.92
2018-02-09T10:19:07.221Z,37.83
2018-02-09T10:20:09.747Z,37.88
2018-02-09T10:21:12.244Z,37.70
2018-02-09T10:22:14.733Z,37.71
2018-02-09T10:23:17.223Z,37.59
2018-02-09T10:24:19.703Z,37.61
2018-02-09T10:25:22.201Z,37.39
2018-02-09T10:26:24.681Z,37.37
2018-02-09T10:27:27.163Z,37.46
2018-02-09T10:28:29.640Z,37.45
2018-02-09T10:29:32.120Z,37.49
2018-02-09T10:30:34.601Z,37.52
2018-02-09T10:31:37.085Z,37.49
2018-02-09T10:32:39.569Z,37.52
2018-02-09T10:33:42.044Z,37.52
2018-02-09T10:34:44.530Z,37.58
2018-02-09T10:35:47.090Z,37.56
2018-02-09T10:36:49.555Z,37.66
2018-02-09T10:37:52.098Z,37.70
2018-02-09T10:38:54.553Z,37.74
2018-02-09T10:39:57.033Z,37.71
2018-02-09T10:40:59.502Z,37.70
2018-02-09T10:42:01.984Z,37.61
2018-02-09T10:43:04.446Z,37.45
2018-02-09T10:44:06.920Z,37.42
2018-02-09T10:45:09.401Z,37.27
2018-02-09T10:46:11.872Z,37.33
2018-02-09T10:47:14.366Z,37.33
2018-02-09T10:48:16.844Z,37.33
2018-02-09T10:49:19.320Z,37.31
2018-02-09T10:50:21.809Z,37.28
2018-02-09T10:51:24.297Z,37.28
2018-02-09T10:52:26.768Z,37.31
2018-02-09T10:53:29.234Z,37.34
2018-02-09T10:54:31.708Z,37.33
2018-02-09T10:55:34.170Z,37.34
2018-02-09T10:56:36.699Z,37.41
2018-02-09T10:57:39.160Z,37.47
2018-02-09T10:58:41.626Z,37.54
2018-02-09T10:59:44.105Z,37.53
2018-02-09T11:00:52.301Z,37.54
2018-02-09T11:01:54.793Z,37.60
2018-02-09T11:02:57.268Z,37.63
2018-02-09T11:03:59.735Z,37.67
2018-02-09T11:05:02.206Z,37.67
2018-02-09T11:06:04.670Z,37.48
2018-02-09T11:07:07.150Z,37.25
2018-02-09T11:08:09.612Z,37.38
2018-02-09T11:09:12.081Z,37.37
2018-02-09T11:10:35.437Z,37.36
2018-02-09T11:11:37.903Z,37.31
2018-02-09T11:12:43.306Z,37.32
2018-02-09T11:13:45.896Z,37.29
2018-02-09T11:14:48.401Z,37.34
2018-02-09T11:15:50.884Z,37.37
2018-02-09T11:16:53.358Z,37.36
2018-02-09T11:17:55.839Z,37.37
2018-02-09T11:18:58.319Z,37.32
2018-02-09T11:20:00.829Z,37.38
2018-02-09T11:21:03.299Z,37.44
2018-02-09T11:22:05.866Z,37.47
2018-02-09T11:23:08.343Z,37.51
2018-02-09T11:24:10.806Z,37.52
2018-02-09T11:25:13.309Z,37.53
2018-02-09T11:26:15.805Z,37.55
2018-02-09T11:27:18.266Z,37.53
2018-02-09T11:28:20.730Z,37.55
2018-02-09T11:29:23.195Z,37.55
2018-02-09T11:30:25.696Z,37.53
2018-02-09T11:31:28.173Z,37.60
2018-02-09T11:32:30.648Z,37.60
2018-02-09T11:33:33.153Z,37.65
2018-02-09T11:34:35.628Z,37.71
2018-02-09T11:35:38.114Z,37.64
2018-02-09T11:36:40.597Z,37.71
2018-02-09T11:37:43.077Z,37.72
2018-02-09T11:38:45.544Z,37.72
2018-02-09T11:39:48.054Z,37.71
2018-02-09T11:40:50.546Z,37.73
2018-02-09T11:41:53.015Z,37.70
2018-02-09T11:42:55.482Z,37.84
2018-02-09T11:43:57.951Z,37.78
2018-02-09T11:45:00.415Z,37.80
2018-02-09T11:46:02.921Z,37.81
2018-02-09T11:47:05.401Z,37.85
2018-02-09T11:48:07.886Z,37.96
2018-02-09T11:49:10.375Z,38.23
2018-02-09T11:50:12.858Z,38.28
2018-02-09T11:51:15.364Z,38.24
2018-02-09T11:52:17.838Z,38.16
2018-02-09T11:53:20.320Z,38.03
2018-02-09T11:54:22.805Z,37.92
2018-02-09T11:55:25.288Z,37.68
2018-02-09T11:56:27.785Z,37.64
2018-02-09T11:57:30.374Z,37.58
2018-02-09T11:58:32.841Z,37.49
2018-02-09T11:59:35.298Z,37.46
2018-02-09T12:00:37.808Z,37.41
2018-02-09T12:01:40.301Z,37.39
2018-02-09T12:02:42.774Z,37.05
2018-02-09T12:03:45.271Z,36.94
2018-02-09T12:04:47.734Z,36.97
2018-02-09T12:05:50.203Z,37.09
2018-02-09T12:06:52.709Z,37.05
2018-02-09T12:07:55.179Z,37.15
2018-02-09T12:08:57.646Z,37.31
2018-02-09T12:10:00.153Z,37.33
2018-02-09T12:11:02.628Z,37.39
2018-02-09T12:12:05.133Z,37.51
2018-02-09T12:13:07.608Z,37.60
2018-02-09T12:14:10.071Z,37.60
2018-02-09T12:15:12.539Z,37.61
2018-02-09T12:16:15.003Z,37.61
2018-02-09T12:17:17.509Z,37.55
2018-02-09T12:18:19.975Z,37.52
2018-02-09T12:19:22.443Z,37.58
2018-02-09T12:20:24.925Z,37.54
2018-02-09T12:21:27.443Z,37.53
2018-02-09T12:22:29.941Z,37.56
2018-02-09T12:23:32.425Z,37.61
2018-02-09T12:24:34.905Z,37.69
2018-02-09T12:25:37.397Z,37.77
2018-02-09T12:26:39.867Z,37.84
2018-02-09T12:27:42.354Z,37.95
2018-02-09T12:28:44.841Z,38.05
2018-02-09T12:29:47.333Z,38.15
2018-02-09T12:30:49.830Z,38.27
2018-02-09T12:31:52.299Z,38.34
2018-02-09T12:32:54.786Z,38.44
2018-02-09T12:33:57.265Z,38.56
2018-02-09T12:34:59.738Z,38.61
2018-02-09T12:36:02.221Z,38.68
2018-02-09T12:37:04.766Z,38.66
2018-02-09T12:38:07.282Z,38.58
2018-02-09T12:39:09.765Z,38.52
2018-02-09T12:40:12.240Z,38.50
2018-02-09T12:41:14.718Z,38.43
2018-02-09T12:42:17.182Z,38.38
2018-02-09T12:43:19.716Z,38.37
2018-02-09T12:44:22.197Z,38.32
2018-02-09T12:45:24.678Z,38.27
2018-02-09T12:46:27.164Z,38.28
2018-02-09T12:47:29.640Z,38.37
2018-02-09T12:48:32.126Z,38.31
2018-02-09T12:49:34.608Z,38.38
2018-02-09T12:50:37.089Z,38.44
2018-02-09T12:51:39.617Z,38.52
2018-02-09T12:52:42.066Z,38.55
2018-02-09T12:53:44.557Z,38.50
2018-02-09T12:54:47.049Z,38.46
2018-02-09T12:55:49.533Z,38.43
2018-02-09T12:56:52.023Z,38.47
2018-02-09T12:57:54.512Z,38.44
2018-02-09T12:58:57.002Z,38.49
2018-02-09T12:59:59.484Z,38.46
2018-02-09T13:01:01.976Z,38.59
2018-02-09T13:02:04.455Z,38.44
2018-02-09T13:03:06.937Z,38.57
2018-02-09T13:04:09.427Z,38.74
2018-02-09T13:05:11.927Z,38.80
2018-02-09T13:06:14.413Z,38.85
2018-02-09T13:07:16.897Z,38.91
2018-02-09T13:08:19.402Z,38.98
2018-02-09T13:09:22.044Z,39.13
2018-02-09T13:10:24.530Z,39.21
2018-02-09T13:11:26.999Z,39.25
2018-02-09T13:12:41.285Z,39.31
2018-02-09T13:13:43.775Z,39.26
2018-02-09T13:14:49.991Z,39.31
2018-02-09T13:15:52.467Z,39.17
2018-02-09T13:16:55.053Z,39.01
2018-02-09T13:17:58.034Z,38.90
2018-02-09T13:19:00.557Z,38.78
2018-02-09T13:20:03.348Z,38.64
2018-02-09T13:21:05.888Z,38.50
2018-02-09T13:22:08.374Z,38.46
2018-02-09T13:23:22.818Z,38.40
2018-02-09T13:24:25.668Z,38.33
2018-02-09T13:25:28.546Z,38.28